Impacts METAR Board
IDs:

KMSP - Minneapolis-St Paul, MN, US

Updated at: 0100 UTC 28 May 2018
Potential Impact None Slight Moderate High
Time 27/13Z 27/14Z 27/15Z 27/16Z 27/17Z 27/18Z 27/19Z 27/20Z 27/21Z 27/22Z 27/23Z 28/00Z 28/01Z
Temp76 80 85 88 88 88 87 88 88 90 90 90 88
Dewpt63 61 63 64 64 58 60 60 59 62 65 64 64
Altim29.82 29.84 29.85 29.87 29.87 29.85 29.88 29.85 29.84 29.83 29.81 29.80 29.79
VIS10 10 10 10 10 10 10 10 10 10 10 10 10
CIG300 300 300 300 300 300 300 300 300 300 300 300 300
CoverBKNBKNBKNOVCOVCOVCOVCOVCOVCBKNBKNBKNBKN
FltCatVFRVFRVFRVFRVFRVFRVFRVFRVFRVFRVFRVFRVFR
WX--------------------------
WDir02400033060350100130140130120140
WSpd0 4 0 3 12 10 10 9 10 8 7 8 7
WGst-- -- -- -- 18 -- -- -- -- -- -- -- --
Raw hourly METARs
KMSP 271253Z 00000KT 10SM BKN300 24/17 A2982 RMK AO2 SLP092 T02440172 $
KMSP 271353Z 24004KT 10SM BKN300 27/16 A2984 RMK AO2 SLP099 T02670161 $
KMSP 271453Z 00000KT 10SM BKN300 29/17 A2985 RMK AO2 SLP103 T02940172 51018 $
KMSP 271553Z VRB03KT 10SM SCT150 OVC300 31/18 A2987 RMK AO2 SLP109 T03110178 $
KMSP 271653Z 33012G18KT 10SM SCT150 OVC300 31/18 A2987 RMK AO2 SLP109 T03110178 $
KMSP 271753Z 06010KT 10SM SCT150 OVC300 31/14 A2985 RMK AO2 SLP100 T03110144 10322 20217 58003 $
KMSP 271853Z 35010KT 10SM SCT150 OVC300 31/16 A2988 RMK AO2 SLP112 T03060156 $
KMSP 271953Z 10009KT 10SM FEW210 FEW250 OVC300 31/16 A2985 RMK AO2 SLP100 T03110156 $
KMSP 272053Z 13010KT 10SM FEW240 OVC300 31/15 A2984 RMK AO2 SLP099 T03110150 58002 $
KMSP 272153Z 14008KT 10SM FEW240 BKN300 32/17 A2983 RMK AO2 SLP093 T03220167
KMSP 272253Z 13007KT 10SM FEW250 BKN300 32/18 A2981 RMK AO2 SLP086 T03220183
KMSP 272353Z 12008KT 10SM BKN300 32/18 A2980 RMK AO2 SLP082 T03220178 10328 20306 56015 $
KMSP 280053Z 14007KT 10SM FEW240 BKN300 31/18 A2979 RMK AO2 SLP080 T03110178 $



Page loaded:  01:30 UTC  |   06:30 PM Pacific  |   07:30 PM Mountain  |   08:30 PM Central  |   09:30 PM Eastern

 

ADVISORIES

FORECASTS

FORECASTS

OBSERVATIONS

USER TOOLS

ABOUT US